createdAt,value
2022-12-06T00:00:05.193Z,13.60
2022-12-06T00:02:34.536Z,12.32
2022-12-06T00:05:02.412Z,12.52
2022-12-06T00:07:31.049Z,14.48
2022-12-06T00:09:59.172Z,14.03
2022-12-06T00:12:28.058Z,13.18
2022-12-06T00:14:55.818Z,12.75
2022-12-06T00:17:24.468Z,13.38
2022-12-06T00:19:53.663Z,12.77
2022-12-06T00:22:21.471Z,13.77
2022-12-06T00:24:49.200Z,14.80
2022-12-06T00:27:16.895Z,15.43
2022-12-06T00:29:44.705Z,13.98
2022-12-06T00:32:19.100Z,15.38
2022-12-06T00:34:47.346Z,15.82
2022-12-06T00:37:16.603Z,17.48
2022-12-06T00:39:44.358Z,17.90
2022-12-06T00:42:12.113Z,17.75
2022-12-06T00:44:39.856Z,15.05
2022-12-06T00:47:07.633Z,16.13
2022-12-06T00:49:35.493Z,14.75
2022-12-06T00:52:03.203Z,16.20
2022-12-06T00:54:32.372Z,19.63
2022-12-06T00:57:00.192Z,17.30
2022-12-06T00:59:28.467Z,19.23
2022-12-06T01:01:56.197Z,19.15
2022-12-06T01:04:23.972Z,20.30
2022-12-06T01:06:51.690Z,18.90
2022-12-06T01:09:19.378Z,19.88
2022-12-06T01:11:48.472Z,21.23
2022-12-06T01:14:16.200Z,19.45
2022-12-06T01:16:43.886Z,18.48
2022-12-06T01:19:13.469Z,18.08
2022-12-06T01:21:41.082Z,22.55
2022-12-06T01:24:09.035Z,23.00
2022-12-06T01:26:37.304Z,19.48
2022-12-06T01:29:06.353Z,22.20
2022-12-06T01:31:38.599Z,21.05
2022-12-06T01:34:07.994Z,18.97
2022-12-06T01:36:35.664Z,17.05
2022-12-06T01:39:08.888Z,19.05
2022-12-06T01:41:36.470Z,18.88
2022-12-06T01:44:06.721Z,17.83
2022-12-06T01:46:36.130Z,24.23
2022-12-06T01:49:17.330Z,18.73
2022-12-06T01:51:48.500Z,15.90
2022-12-06T01:54:17.470Z,16.77
2022-12-06T01:56:45.271Z,16.95
2022-12-06T01:59:14.888Z,19.00
2022-12-06T02:01:42.897Z,17.53
2022-12-06T02:04:11.036Z,15.27
2022-12-06T02:06:40.603Z,14.38
2022-12-06T02:09:09.676Z,14.55
2022-12-06T02:11:37.733Z,13.70
2022-12-06T02:14:07.376Z,14.48
2022-12-06T02:16:51.183Z,14.50
2022-12-06T02:19:36.776Z,14.93
2022-12-06T02:22:09.973Z,14.57
2022-12-06T02:24:48.858Z,12.88
2022-12-06T02:27:38.283Z,15.65
2022-12-06T02:30:11.074Z,13.35
2022-12-06T02:32:44.411Z,15.48
2022-12-06T02:35:16.452Z,14.43
2022-12-06T02:37:47.756Z,15.40
2022-12-06T02:40:18.286Z,16.40
2022-12-06T02:42:48.479Z,14.65
2022-12-06T02:45:20.372Z,15.43
2022-12-06T02:47:51.223Z,15.00
2022-12-06T02:50:21.361Z,16.25
2022-12-06T02:52:52.431Z,17.60
2022-12-06T02:55:20.437Z,15.13
2022-12-06T02:57:49.961Z,14.32
2022-12-06T03:00:36.520Z,15.25
2022-12-06T03:03:30.813Z,18.98
2022-12-06T03:06:15.544Z,19.77
2022-12-06T03:08:50.654Z,19.30
2022-12-06T03:11:18.359Z,17.55
2022-12-06T03:13:53.029Z,17.15
2022-12-06T03:16:27.346Z,18.15
2022-12-06T03:19:00.027Z,19.70
2022-12-06T03:21:30.762Z,17.25
2022-12-06T03:23:59.343Z,16.80
2022-12-06T03:26:30.534Z,18.25
2022-12-06T03:28:59.800Z,22.08
2022-12-06T03:31:29.091Z,18.17
2022-12-06T03:34:01.204Z,16.00
2022-12-06T03:36:30.192Z,16.40
2022-12-06T03:39:00.122Z,16.20
2022-12-06T03:41:30.205Z,18.80
2022-12-06T03:43:59.011Z,16.55
2022-12-06T03:46:30.775Z,19.77
2022-12-06T03:49:02.877Z,19.20
2022-12-06T03:51:32.512Z,14.70
2022-12-06T03:54:01.567Z,16.10
2022-12-06T03:56:29.451Z,16.13
2022-12-06T03:58:57.197Z,17.73
2022-12-06T04:01:24.994Z,17.98
2022-12-06T04:03:52.952Z,13.75
2022-12-06T04:06:22.106Z,16.30
2022-12-06T04:08:49.839Z,19.00
2022-12-06T04:11:17.719Z,19.10
2022-12-06T04:13:45.494Z,14.68
2022-12-06T04:16:28.281Z,13.57
2022-12-06T04:18:57.257Z,14.23
2022-12-06T04:21:43.913Z,13.88
2022-12-06T04:24:11.980Z,11.73
2022-12-06T04:26:39.694Z,13.30
2022-12-06T04:29:24.725Z,11.25
2022-12-06T04:32:09.828Z,11.55
2022-12-06T04:34:55.109Z,12.80
2022-12-06T04:37:41.522Z,10.30
2022-12-06T04:40:10.028Z,11.65
2022-12-06T04:42:55.099Z,11.73
2022-12-06T04:45:22.975Z,11.68
2022-12-06T04:47:50.715Z,11.97
2022-12-06T04:50:18.513Z,10.55
2022-12-06T04:52:47.584Z,8.65
2022-12-06T04:55:15.871Z,9.77
2022-12-06T04:57:43.530Z,9.93
2022-12-06T05:00:12.142Z,12.35
2022-12-06T05:02:39.811Z,9.45
2022-12-06T05:05:08.510Z,9.23
2022-12-06T05:07:36.198Z,11.10
2022-12-06T05:10:06.058Z,9.88
2022-12-06T05:12:33.728Z,10.70
2022-12-06T05:15:01.464Z,9.63
2022-12-06T05:17:29.146Z,10.00
2022-12-06T05:19:56.923Z,8.38
2022-12-06T05:22:24.746Z,8.60
2022-12-06T05:24:52.393Z,11.07
2022-12-06T05:27:21.449Z,7.72
2022-12-06T05:29:49.319Z,7.70
2022-12-06T05:32:16.983Z,7.43
2022-12-06T05:34:44.607Z,7.80
2022-12-06T05:37:12.354Z,8.02
2022-12-06T05:39:40.028Z,10.10
2022-12-06T05:42:07.685Z,7.80
2022-12-06T05:44:37.069Z,9.70
2022-12-06T05:47:04.846Z,8.75
2022-12-06T05:49:32.532Z,7.63
2022-12-06T05:52:03.968Z,11.13
2022-12-06T05:54:32.052Z,6.85
2022-12-06T05:56:59.747Z,8.32
2022-12-06T05:59:27.669Z,9.23
2022-12-06T06:01:56.824Z,8.33
2022-12-06T06:04:24.709Z,10.45
2022-12-06T06:06:53.230Z,9.23
2022-12-06T06:09:21.305Z,8.93
2022-12-06T06:11:48.917Z,8.50
2022-12-06T06:14:16.681Z,10.25
2022-12-06T06:16:44.391Z,9.30
2022-12-06T06:19:13.579Z,10.38
2022-12-06T06:21:41.385Z,9.68
2022-12-06T06:24:09.430Z,11.47
2022-12-06T06:26:37.024Z,11.40
2022-12-06T06:29:04.766Z,9.25
2022-12-06T06:31:32.519Z,9.88
2022-12-06T06:34:00.185Z,8.40
2022-12-06T06:36:29.393Z,8.05
2022-12-06T06:38:58.796Z,9.75
2022-12-06T06:41:26.567Z,8.10
2022-12-06T06:43:54.297Z,9.95
2022-12-06T06:46:21.985Z,7.90
2022-12-06T06:48:49.725Z,8.07
2022-12-06T06:51:17.450Z,9.13
2022-12-06T06:53:46.599Z,10.18
2022-12-06T06:56:14.301Z,9.63
2022-12-06T06:58:42.114Z,10.20
2022-12-06T07:01:11.171Z,9.05
2022-12-06T07:03:39.353Z,10.48
2022-12-06T07:06:10.255Z,9.73
2022-12-06T07:08:39.038Z,9.50
2022-12-06T07:11:08.459Z,11.75
2022-12-06T07:13:37.843Z,8.95
2022-12-06T07:16:06.140Z,9.57
2022-12-06T07:18:34.057Z,8.85
2022-12-06T07:21:03.879Z,7.25
2022-12-06T07:23:33.036Z,9.43
2022-12-06T07:26:02.357Z,8.15
2022-12-06T07:28:31.537Z,6.85
2022-12-06T07:30:59.301Z,8.00
2022-12-06T07:33:26.975Z,7.35
2022-12-06T07:36:12.417Z,7.88
2022-12-06T07:38:41.528Z,7.00
2022-12-06T07:41:25.453Z,8.13
2022-12-06T07:44:13.482Z,7.70
2022-12-06T07:46:41.431Z,6.67
2022-12-06T07:49:09.757Z,9.68
2022-12-06T07:51:37.582Z,9.77
2022-12-06T07:54:06.268Z,7.00
2022-12-06T07:56:33.922Z,7.88
2022-12-06T07:59:03.077Z,9.05
2022-12-06T08:01:30.798Z,8.70
2022-12-06T08:04:00.256Z,7.63
2022-12-06T08:06:28.063Z,7.70
2022-12-06T08:08:55.714Z,7.53
2022-12-06T08:11:24.446Z,10.20
2022-12-06T08:13:52.168Z,7.43
2022-12-06T08:16:21.323Z,10.45
2022-12-06T08:18:49.132Z,7.00
2022-12-06T08:21:17.576Z,5.60
2022-12-06T08:23:45.343Z,6.13
2022-12-06T08:26:16.344Z,6.70
2022-12-06T08:28:44.077Z,8.68
2022-12-06T08:31:14.556Z,7.60
2022-12-06T08:33:43.700Z,6.57
2022-12-06T08:36:14.034Z,10.48
2022-12-06T08:38:42.130Z,6.43
2022-12-06T08:41:31.268Z,12.38
2022-12-06T08:44:00.220Z,8.15
2022-12-06T08:46:28.548Z,9.03
2022-12-06T08:48:57.788Z,6.53
2022-12-06T08:51:25.881Z,8.65
2022-12-06T08:53:55.252Z,7.85
2022-12-06T08:56:23.013Z,11.13
2022-12-06T08:58:51.364Z,9.10
2022-12-06T09:01:21.966Z,7.43
2022-12-06T09:03:49.831Z,9.02
2022-12-06T09:06:19.397Z,10.60
2022-12-06T09:08:47.671Z,10.57
2022-12-06T09:11:16.693Z,11.57
2022-12-06T09:13:44.817Z,11.55
2022-12-06T09:16:14.250Z,11.88
2022-12-06T09:18:42.036Z,9.55
2022-12-06T09:21:11.293Z,8.80
2022-12-06T09:23:40.594Z,7.20
2022-12-06T09:26:08.955Z,7.15
2022-12-06T09:28:38.165Z,7.00
2022-12-06T09:31:07.594Z,6.95
2022-12-06T09:33:35.797Z,6.90
2022-12-06T09:36:07.631Z,5.47
2022-12-06T09:38:37.193Z,6.40
2022-12-06T09:41:11.718Z,8.60
2022-12-06T09:43:49.692Z,5.78
2022-12-06T09:46:37.288Z,5.97
2022-12-06T09:49:30.689Z,5.03
2022-12-06T09:52:12.325Z,6.15
2022-12-06T09:54:52.618Z,5.77
2022-12-06T09:57:28.133Z,6.18
2022-12-06T10:00:04.445Z,5.32
2022-12-06T10:03:07.157Z,4.95
2022-12-06T10:05:48.101Z,5.38
2022-12-06T10:08:28.018Z,3.70
2022-12-06T10:11:02.728Z,4.75
2022-12-06T10:13:46.390Z,6.00
2022-12-06T10:16:21.492Z,7.35
2022-12-06T10:19:07.714Z,5.70
2022-12-06T10:21:42.943Z,7.60
2022-12-06T10:24:19.811Z,5.43
2022-12-06T10:26:50.857Z,6.00
2022-12-06T10:29:29.204Z,7.28
2022-12-06T10:31:59.362Z,5.97
2022-12-06T10:34:48.830Z,7.88
2022-12-06T10:37:24.011Z,5.20
2022-12-06T10:39:54.375Z,5.10
2022-12-06T10:42:30.924Z,5.40
2022-12-06T10:45:02.487Z,6.30
2022-12-06T10:47:33.221Z,5.28
2022-12-06T10:50:05.098Z,5.97
2022-12-06T10:52:39.861Z,4.87
2022-12-06T10:55:18.304Z,2.75
2022-12-06T10:57:50.906Z,3.33
2022-12-06T11:00:22.086Z,3.50
2022-12-06T11:02:56.319Z,2.30
2022-12-06T11:05:27.686Z,3.78
2022-12-06T11:08:00.299Z,3.67
2022-12-06T11:10:30.668Z,2.63
2022-12-06T11:13:02.017Z,3.80
2022-12-06T11:15:34.659Z,2.23
2022-12-06T11:18:05.707Z,3.22
2022-12-06T11:20:39.794Z,2.20
2022-12-06T11:23:12.692Z,1.83
2022-12-06T11:25:47.432Z,2.65
2022-12-06T11:28:22.675Z,1.80
2022-12-06T11:30:54.603Z,2.30
2022-12-06T11:33:28.196Z,1.70
2022-12-06T11:35:57.090Z,2.88
2022-12-06T11:38:25.050Z,2.20
2022-12-06T11:40:52.908Z,2.75
2022-12-06T11:43:25.432Z,2.00
2022-12-06T11:45:56.078Z,2.42
2022-12-06T11:48:25.632Z,3.03
2022-12-06T11:50:54.197Z,3.38
2022-12-06T11:53:25.329Z,3.17
2022-12-06T11:55:54.799Z,3.78
2022-12-06T11:58:28.083Z,3.47
2022-12-06T12:01:06.188Z,6.30
2022-12-06T12:03:35.630Z,2.55
2022-12-06T12:06:20.585Z,2.17
2022-12-06T12:08:53.612Z,3.40
2022-12-06T12:11:22.665Z,2.53
2022-12-06T12:13:52.653Z,2.75
2022-12-06T12:16:24.592Z,2.80
2022-12-06T12:18:56.169Z,3.53
2022-12-06T12:21:36.640Z,2.55
2022-12-06T12:24:05.393Z,1.88
2022-12-06T12:26:39.586Z,3.00
2022-12-06T12:29:17.079Z,4.85
2022-12-06T12:31:54.452Z,3.38
2022-12-06T12:34:23.495Z,2.60
2022-12-06T12:36:52.719Z,3.55
2022-12-06T12:39:29.667Z,3.25
2022-12-06T12:41:57.324Z,2.80
2022-12-06T12:44:42.462Z,4.13
2022-12-06T12:47:17.974Z,3.97
2022-12-06T12:50:00.762Z,5.65
2022-12-06T12:52:30.514Z,2.58
2022-12-06T12:55:03.107Z,3.50
2022-12-06T12:57:31.092Z,2.80
2022-12-06T12:59:59.102Z,4.18
2022-12-06T13:02:30.222Z,6.73
2022-12-06T13:07:50.787Z,3.28
2022-12-06T13:10:20.661Z,4.50
2022-12-06T13:12:51.988Z,2.47
2022-12-06T13:15:22.393Z,3.35
2022-12-06T13:17:59.286Z,3.60
2022-12-06T13:20:29.307Z,3.50
2022-12-06T13:23:00.199Z,2.38
2022-12-06T13:25:28.286Z,5.38
2022-12-06T13:28:03.685Z,4.47
2022-12-06T13:30:35.090Z,6.40
2022-12-06T13:33:07.009Z,4.77
2022-12-06T13:35:38.128Z,3.17
2022-12-06T13:38:26.713Z,6.15
2022-12-06T13:40:55.371Z,3.30
2022-12-06T13:43:59.160Z,4.30
2022-12-06T13:46:30.089Z,4.90
2022-12-06T13:49:03.424Z,3.80
2022-12-06T13:51:45.623Z,3.38
2022-12-06T13:54:37.077Z,4.03
2022-12-06T13:57:22.845Z,3.08
2022-12-06T13:59:50.765Z,3.65
2022-12-06T14:02:49.177Z,4.07
2022-12-06T14:08:38.158Z,4.15
2022-12-06T14:11:22.298Z,4.25
2022-12-06T14:14:01.330Z,4.50
2022-12-06T14:16:32.543Z,3.95
2022-12-06T14:19:00.372Z,3.33
2022-12-06T14:21:31.676Z,3.97
2022-12-06T14:24:00.815Z,3.80
2022-12-06T14:26:30.591Z,4.82
2022-12-06T14:29:00.072Z,4.22
2022-12-06T14:31:30.424Z,6.03
2022-12-06T14:33:58.706Z,5.93
2022-12-06T14:36:29.857Z,5.20
2022-12-06T14:39:02.061Z,4.70
2022-12-06T14:41:49.624Z,5.70
2022-12-06T14:44:19.243Z,5.00
2022-12-06T14:46:48.343Z,4.28
2022-12-06T14:49:37.912Z,4.93
2022-12-06T14:52:18.643Z,3.95
2022-12-06T14:54:48.348Z,5.13
2022-12-06T14:57:26.588Z,3.90
2022-12-06T15:03:00.834Z,4.18
2022-12-06T15:05:37.553Z,4.25
2022-12-06T15:08:32.756Z,4.75
2022-12-06T15:11:03.653Z,5.13
2022-12-06T15:13:30.481Z,5.80
2022-12-06T15:16:04.674Z,4.13
2022-12-06T15:18:34.360Z,4.32
2022-12-06T15:21:02.105Z,4.17
2022-12-06T15:23:35.898Z,5.63
2022-12-06T15:26:05.791Z,3.05
2022-12-06T15:28:35.557Z,4.93
2022-12-06T15:31:03.839Z,5.57
2022-12-06T15:33:31.810Z,3.15
2022-12-06T15:35:59.656Z,4.40
2022-12-06T15:38:27.412Z,4.00
2022-12-06T15:40:56.093Z,4.13
2022-12-06T15:43:30.275Z,3.40
2022-12-06T15:46:00.379Z,4.90
2022-12-06T15:48:28.577Z,3.42
2022-12-06T15:50:57.055Z,6.35
2022-12-06T15:53:25.916Z,3.10
2022-12-06T15:55:53.802Z,4.35
2022-12-06T15:58:22.841Z,6.53
2022-12-06T16:00:51.975Z,4.35
2022-12-06T16:03:19.742Z,6.28
2022-12-06T16:05:47.436Z,8.70
2022-12-06T16:08:15.167Z,17.55
2022-12-06T16:11:10.792Z,13.05
2022-12-06T16:13:31.455Z,13.23
2022-12-06T16:16:00.686Z,12.30
2022-12-06T16:18:28.552Z,22.10
2022-12-06T16:20:56.640Z,10.93
2022-12-06T16:24:11.853Z,12.48
2022-12-06T16:26:32.990Z,19.00
2022-12-06T16:29:01.833Z,14.32
2022-12-06T16:31:35.145Z,19.00
2022-12-06T16:34:06.130Z,14.50
2022-12-06T16:36:34.224Z,10.23
2022-12-06T16:39:04.472Z,17.10
2022-12-06T16:41:34.433Z,10.68
2022-12-06T16:44:02.535Z,11.50
2022-12-06T16:46:33.133Z,12.70
2022-12-06T16:49:36.651Z,10.82
2022-12-06T16:51:50.197Z,10.98
2022-12-06T16:54:40.936Z,9.37
2022-12-06T16:57:09.961Z,7.78
2022-12-06T16:59:37.801Z,7.70
2022-12-06T17:02:10.086Z,8.25
2022-12-06T17:04:42.709Z,7.60
2022-12-06T17:07:10.356Z,7.07
2022-12-06T17:09:39.360Z,9.63
2022-12-06T17:12:12.636Z,10.48
2022-12-06T17:14:40.712Z,7.45
2022-12-06T17:17:09.823Z,7.95
2022-12-06T17:19:37.664Z,9.77
2022-12-06T17:22:07.293Z,10.65
2022-12-06T17:24:35.008Z,12.07
2022-12-06T17:27:04.105Z,9.13
2022-12-06T17:29:31.791Z,9.10
2022-12-06T17:31:59.984Z,9.07
2022-12-06T17:34:27.720Z,11.00
2022-12-06T17:36:57.406Z,9.63
2022-12-06T17:39:25.090Z,8.50
2022-12-06T17:42:10.622Z,9.33
2022-12-06T17:44:40.015Z,22.42
2022-12-06T17:47:07.963Z,34.55
2022-12-06T17:49:36.199Z,41.33
2022-12-06T17:52:03.904Z,45.42
2022-12-06T17:54:31.769Z,32.85
2022-12-06T17:56:59.547Z,28.35
2022-12-06T17:59:29.418Z,20.55
2022-12-06T18:02:16.885Z,15.30
2022-12-06T18:04:46.141Z,17.30
2022-12-06T18:07:14.614Z,16.60
2022-12-06T18:09:42.399Z,20.20
2022-12-06T18:12:10.935Z,23.73
2022-12-06T18:14:38.729Z,17.20
2022-12-06T18:17:07.992Z,31.73
2022-12-06T18:19:36.198Z,33.42
2022-12-06T18:22:04.494Z,21.63
2022-12-06T18:24:35.886Z,25.57
2022-12-06T18:27:04.667Z,21.42
2022-12-06T18:29:32.651Z,15.57
2022-12-06T18:32:00.475Z,15.02
2022-12-06T18:34:29.716Z,13.63
2022-12-06T18:36:57.487Z,13.57
2022-12-06T18:39:25.404Z,13.00
2022-12-06T18:41:54.042Z,21.15
2022-12-06T18:44:22.392Z,13.25
2022-12-06T18:46:50.095Z,16.67
2022-12-06T18:49:17.947Z,15.15
2022-12-06T18:51:47.061Z,14.38
2022-12-06T18:54:14.964Z,12.73
2022-12-06T18:56:42.928Z,14.20
2022-12-06T18:59:12.242Z,14.88
2022-12-06T19:01:41.465Z,17.88
2022-12-06T19:04:11.465Z,14.13
2022-12-06T19:06:39.493Z,11.98
2022-12-06T19:09:13.367Z,11.93
2022-12-06T19:11:42.258Z,15.75
2022-12-06T19:14:10.191Z,24.02
2022-12-06T19:16:40.257Z,23.63
2022-12-06T19:19:15.878Z,29.75
2022-12-06T19:21:45.157Z,18.55
2022-12-06T19:24:16.558Z,49.20
2022-12-06T19:26:45.709Z,37.97
2022-12-06T19:29:14.064Z,19.00
2022-12-06T19:31:41.769Z,17.55
2022-12-06T19:34:15.165Z,18.00
2022-12-06T19:36:43.139Z,18.05
2022-12-06T19:39:11.518Z,18.40
2022-12-06T19:41:54.488Z,18.25
2022-12-06T19:44:22.767Z,18.33
2022-12-06T19:46:50.493Z,19.38
2022-12-06T19:49:19.915Z,23.10
2022-12-06T19:51:49.255Z,19.27
2022-12-06T19:54:19.403Z,18.73
2022-12-06T19:56:48.951Z,19.80
2022-12-06T19:59:16.759Z,19.38
2022-12-06T20:01:45.609Z,21.10
2022-12-06T20:04:15.869Z,19.63
2022-12-06T20:06:43.975Z,19.50
2022-12-06T20:09:11.667Z,19.23
2022-12-06T20:11:58.174Z,21.08
2022-12-06T20:14:27.867Z,20.00
2022-12-06T20:16:55.704Z,20.45
2022-12-06T20:19:24.226Z,22.00
2022-12-06T20:21:52.019Z,21.40
2022-12-06T20:24:22.512Z,20.48
2022-12-06T20:26:51.790Z,21.23
2022-12-06T20:29:19.738Z,20.85
2022-12-06T20:31:49.922Z,20.60
2022-12-06T20:34:18.012Z,19.97
2022-12-06T20:36:45.822Z,22.33
2022-12-06T20:39:20.871Z,25.40
2022-12-06T20:41:49.518Z,17.70
2022-12-06T20:44:17.626Z,16.88
2022-12-06T20:46:45.657Z,17.40
2022-12-06T20:49:16.163Z,14.98
2022-12-06T20:51:48.219Z,14.98
2022-12-06T20:54:20.313Z,14.07
2022-12-06T20:56:51.481Z,13.52
2022-12-06T20:59:19.565Z,13.30
2022-12-06T21:01:47.529Z,16.20
2022-12-06T21:04:16.959Z,12.50
2022-12-06T21:06:44.632Z,13.13
2022-12-06T21:09:12.496Z,13.00
2022-12-06T21:11:40.323Z,12.70
2022-12-06T21:14:08.107Z,13.37
2022-12-06T21:16:38.253Z,12.98
2022-12-06T21:19:07.154Z,13.35
2022-12-06T21:21:37.924Z,12.27
2022-12-06T21:24:07.752Z,11.90
2022-12-06T21:26:35.891Z,11.83
2022-12-06T21:29:03.853Z,12.10
2022-12-06T21:31:33.437Z,11.00
2022-12-06T21:34:01.484Z,11.15
2022-12-06T21:36:29.440Z,10.75
2022-12-06T21:38:58.968Z,10.60
2022-12-06T21:41:27.050Z,10.88
2022-12-06T21:43:54.858Z,11.30
2022-12-06T21:46:24.332Z,10.45
2022-12-06T21:48:52.781Z,10.43
2022-12-06T21:51:20.874Z,10.02
2022-12-06T21:53:48.972Z,9.70
2022-12-06T21:56:20.381Z,10.60
2022-12-06T21:58:48.457Z,10.07
2022-12-06T22:01:18.674Z,10.75
2022-12-06T22:03:48.627Z,10.80
2022-12-06T22:06:16.524Z,11.23
2022-12-06T22:08:45.450Z,10.23
2022-12-06T22:11:14.768Z,10.13
2022-12-06T22:13:44.293Z,9.57
2022-12-06T22:16:13.090Z,9.80
2022-12-06T22:18:45.596Z,9.85
2022-12-06T22:21:16.110Z,10.10
2022-12-06T22:23:44.411Z,9.73
2022-12-06T22:26:14.920Z,9.35
2022-12-06T22:28:44.322Z,8.25
2022-12-06T22:31:13.378Z,7.97
2022-12-06T22:33:41.146Z,8.13
2022-12-06T22:36:10.100Z,8.70
2022-12-06T22:38:38.226Z,7.90
2022-12-06T22:41:07.180Z,8.00
2022-12-06T22:43:35.208Z,7.40
2022-12-06T22:46:12.455Z,8.40
2022-12-06T22:48:41.279Z,7.57
2022-12-06T22:51:11.184Z,8.57
2022-12-06T22:53:38.912Z,9.43
2022-12-06T22:56:07.083Z,8.45
2022-12-06T22:58:34.936Z,9.40
2022-12-06T23:01:16.024Z,9.48
2022-12-06T23:03:45.144Z,8.70
2022-12-06T23:06:13.341Z,9.00
2022-12-06T23:08:41.145Z,9.65
2022-12-06T23:11:10.778Z,10.38
2022-12-06T23:13:38.727Z,7.88
2022-12-06T23:16:10.342Z,10.13
2022-12-06T23:18:38.183Z,9.05
2022-12-06T23:21:07.165Z,8.93
2022-12-06T23:23:35.221Z,9.95
2022-12-06T23:26:03.805Z,7.18
2022-12-06T23:28:31.618Z,8.57
2022-12-06T23:31:03.434Z,9.50
2022-12-06T23:33:32.890Z,9.73
2022-12-06T23:36:06.152Z,8.55
2022-12-06T23:38:33.887Z,8.23
2022-12-06T23:43:25.047Z,7.95
2022-12-06T23:45:59.136Z,9.98
2022-12-06T23:48:27.984Z,10.48
2022-12-06T23:51:02.538Z,8.40
2022-12-06T23:53:30.475Z,8.88
2022-12-06T23:56:00.025Z,7.15
2022-12-06T23:58:30.124Z,6.50
